Impacts METAR Board
IDs:

KARM - Wharton Rgnl, TX, US

Updated at: 0600 UTC 19 Aug 2019
Potential Impact None Slight Moderate High
Time 18/18Z 18/19Z 18/20Z 18/21Z 18/22Z 18/23Z 19/00Z 19/01Z 19/02Z 19/03Z 19/04Z 19/05Z 19/06Z
Temp94 94 94 94 94 92 90 86 83 80 80 79 78
Dewpt73 71 72 71 70 70 71 71 73 74 74 74 74
Altim29.93 29.92 29.91 29.90 29.88 29.89 29.89 29.90 29.92 29.92 29.94 29.95 29.94
VIS10 10 10 10 10 10 10 10 10 10 10 10 10
CIG-- -- -- -- -- -- -- -- -- -- -- -- --
CoverSCTSCTSCTSCTCLRSCTSCTCLRCLRCLRCLRCLRCLR
FltCatVFRVFRVFRVFRVFRVFRVFRVFRVFRVFRVFRVFRVFR
WX--------------------------
WDir160160180180170150150150140140140140150
WSpd16 15 15 15 10 12 12 9 5 5 5 4 3
WGst20 20 -- 18 17 17 15 -- -- -- -- -- --
Raw hourly METARs
KARM 181755Z AUTO 16016G20KT 10SM SCT030 35/23 A2993 RMK AO2 LTG DSNT S T03450229 10348 20250
KARM 181855Z AUTO 16015G20KT 10SM SCT027 34/22 A2992 RMK AO2 T03430219
KARM 181955Z AUTO 18015KT 10SM SCT031 35/22 A2991 RMK AO2 T03460221
KARM 182055Z AUTO 18015G18KT 10SM SCT035 35/21 A2990 RMK AO2 T03460214
KARM 182155Z AUTO 17010G17KT 10SM CLR 34/21 A2988 RMK AO2 T03440213
KARM 182255Z AUTO 15012G17KT 10SM SCT037 33/21 A2989 RMK AO2 T03340211
KARM 190000Z AUTO 15012G15KT 10SM SCT035 32/21 A2989 RMK AO2 T03220214
KARM 190055Z AUTO 15009KT 10SM CLR 30/22 A2990 RMK AO2 T03020219
KARM 190155Z AUTO 14005KT 10SM CLR 28/23 A2992 RMK AO2 T02810229
KARM 190255Z AUTO 14005KT 10SM CLR 27/23 A2992 RMK AO2 T02670231
KARM 190355Z AUTO 14005KT 10SM CLR 27/24 A2994 RMK AO2 T02650235
KARM 190500Z AUTO 14004KT 10SM CLR 26/24 A2995 RMK AO2 T02600236
KARM 190555Z AUTO 15003KT 10SM CLR 25/24 A2994 RMK AO2 T02530235 10323 20253 403490247



Page loaded:  06:05 UTC  |   11:05 PM Pacific  |   12:05 AM Mountain  |   01:05 AM Central  |   02:05 AM Eastern

 

ADVISORIES

FORECASTS

FORECASTS

OBSERVATIONS

USER TOOLS

ABOUT US